Time;durP1;ratioP1;P1;durP2;ratioP2;P2;SDS_P1;SDS_P2;PMS_P1;PMS_P2;Temp;Humidity;BMP_temperature;BMP_pressure;BME280_temperature;BME280_humidity;BME280_pressure;Samples;Min_cycle;Max_cycle;Signal;HPM_P1;HPM_P2
2022/08/29 00:01:46;;;;;;;;;;;21.50;41.90;;;;;;464650;255;1241;-49
2022/08/29 00:03:47;;;;;;;;;;;21.50;41.90;;;;;;464663;255;1282;-49
2022/08/29 00:05:48;;;;;;;;;;;21.50;41.90;;;;;;464239;256;1308;-49
2022/08/29 00:07:50;;;;;;;;;;;21.50;41.90;;;;;;464635;255;1277;-50
2022/08/29 00:09:51;;;;;;;;;;;21.60;41.90;;;;;;464257;255;1240;-49
2022/08/29 00:11:52;;;;;;;;;;;21.50;41.90;;;;;;464236;256;1342;-49
2022/08/29 00:13:54;;;;;;;;;;;21.50;41.90;;;;;;464141;256;1260;-49
2022/08/29 00:15:55;;;;;;;;;;;21.50;41.90;;;;;;464233;255;1329;-49
2022/08/29 00:17:56;;;;;;;;;;;21.50;41.90;;;;;;464411;255;1252;-49
2022/08/29 00:19:58;;;;;;;;;;;21.50;41.90;;;;;;464661;255;2179;-49
2022/08/29 00:21:59;;;;;;;;;;;21.50;41.80;;;;;;464641;255;1261;-49
2022/08/29 00:24:00;;;;;;;;;;;21.50;41.80;;;;;;464228;255;1309;-49
2022/08/29 00:26:02;;;;;;;;;;;21.60;41.90;;;;;;464378;255;1312;-49
2022/08/29 00:28:03;;;;;;;;;;;21.50;41.80;;;;;;464550;255;1466;-49
2022/08/29 00:30:04;;;;;;;;;;;21.50;41.80;;;;;;464451;255;1334;-49
2022/08/29 00:32:06;;;;;;;;;;;21.50;41.80;;;;;;464228;256;1291;-49
2022/08/29 00:34:07;;;;;;;;;;;21.50;41.80;;;;;;464644;255;1400;-49
2022/08/29 00:36:08;;;;;;;;;;;21.60;41.90;;;;;;464641;255;1389;-50
2022/08/29 00:38:10;;;;;;;;;;;21.50;41.80;;;;;;464312;255;1367;-50
2022/08/29 00:40:11;;;;;;;;;;;21.50;41.80;;;;;;464509;255;2210;-49
2022/08/29 00:42:12;;;;;;;;;;;21.60;41.80;;;;;;464250;256;1320;-49
2022/08/29 00:44:14;;;;;;;;;;;21.50;41.90;;;;;;464665;255;1401;-49
2022/08/29 00:46:15;;;;;;;;;;;21.50;41.80;;;;;;464250;255;1262;-50
2022/08/29 00:48:16;;;;;;;;;;;21.60;41.80;;;;;;464677;255;1374;-49
2022/08/29 00:50:18;;;;;;;;;;;21.50;41.80;;;;;;464221;255;1398;-49
2022/08/29 00:52:19;;;;;;;;;;;21.50;41.80;;;;;;464679;255;1251;-49
2022/08/29 00:54:21;;;;;;;;;;;21.50;41.80;;;;;;464249;256;1138;-50
2022/08/29 00:56:22;;;;;;;;;;;21.50;41.80;;;;;;464670;255;1189;-49
2022/08/29 00:58:23;;;;;;;;;;;21.50;41.80;;;;;;464278;256;1099;-49
2022/08/29 01:00:24;;;;;;;;;;;21.50;41.80;;;;;;464234;256;2214;-49
2022/08/29 01:02:27;;;;;;;;;;;21.50;41.80;;;;;;464216;255;1370;-49
2022/08/29 01:04:27;;;;;;;;;;;21.50;41.80;;;;;;464604;255;1392;-49
2022/08/29 01:06:28;;;;;;;;;;;21.50;41.80;;;;;;464258;256;1268;-49
2022/08/29 01:08:30;;;;;;;;;;;21.50;41.80;;;;;;464498;255;1228;-49
2022/08/29 01:12:50;;;;;;;;;;;21.50;41.80;;;;;;464547;257;1443;-49
2022/08/29 01:14:52;;;;;;;;;;;21.60;41.80;;;;;;464433;255;1244;-49
2022/08/29 01:16:54;;;;;;;;;;;21.50;41.90;;;;;;464199;256;1282;-49
2022/08/29 01:18:55;;;;;;;;;;;21.50;41.90;;;;;;464278;255;1957;-50
2022/08/29 01:20:56;;;;;;;;;;;21.50;42.00;;;;;;464249;256;2155;-50
2022/08/29 01:22:57;;;;;;;;;;;21.50;42.00;;;;;;464676;255;1304;-49
2022/08/29 01:24:58;;;;;;;;;;;21.50;42.00;;;;;;464223;255;1297;-49
2022/08/29 01:27:00;;;;;;;;;;;21.50;42.00;;;;;;464168;256;1318;-49
2022/08/29 01:29:01;;;;;;;;;;;21.50;41.90;;;;;;464287;256;1372;-49
2022/08/29 01:31:02;;;;;;;;;;;21.50;41.90;;;;;;464416;255;1224;-49
2022/08/29 01:33:04;;;;;;;;;;;21.50;41.90;;;;;;464705;255;1064;-49
2022/08/29 01:35:07;;;;;;;;;;;21.50;41.90;;;;;;464695;255;1078;-49
2022/08/29 01:37:06;;;;;;;;;;;21.50;41.90;;;;;;464707;255;1711;-49
2022/08/29 01:39:08;;;;;;;;;;;21.50;41.90;;;;;;464454;255;1054;-49
2022/08/29 01:41:09;;;;;;;;;;;21.50;41.90;;;;;;464707;255;2171;-49
2022/08/29 01:43:10;;;;;;;;;;;21.50;41.90;;;;;;464315;256;1104;-50
2022/08/29 01:45:12;;;;;;;;;;;21.50;41.80;;;;;;464304;255;1204;-49
2022/08/29 01:47:13;;;;;;;;;;;21.50;41.80;;;;;;464414;255;1060;-49
2022/08/29 01:49:14;;;;;;;;;;;21.50;41.90;;;;;;464459;255;1107;-49
2022/08/29 01:51:16;;;;;;;;;;;21.50;41.80;;;;;;464309;256;1100;-49
2022/08/29 01:53:17;;;;;;;;;;;21.50;41.80;;;;;;464302;256;2336;-49
2022/08/29 01:55:18;;;;;;;;;;;21.50;41.80;;;;;;464329;255;1224;-50
2022/08/29 01:57:19;;;;;;;;;;;21.50;41.80;;;;;;464716;255;1180;-49
2022/08/29 01:59:21;;;;;;;;;;;21.50;41.80;;;;;;464202;256;1389;-49
2022/08/29 02:01:22;;;;;;;;;;;21.50;41.80;;;;;;464436;255;2218;-50
2022/08/29 02:03:24;;;;;;;;;;;21.50;41.80;;;;;;464299;256;1297;-49
2022/08/29 02:05:25;;;;;;;;;;;21.50;41.80;;;;;;464680;255;2238;-49
2022/08/29 02:07:28;;;;;;;;;;;21.50;41.70;;;;;;464316;256;1135;-49
2022/08/29 02:09:27;;;;;;;;;;;21.50;41.80;;;;;;464258;256;1974;-49
2022/08/29 02:11:29;;;;;;;;;;;21.50;41.80;;;;;;464307;256;1126;-49
2022/08/29 02:13:30;;;;;;;;;;;21.50;41.80;;;;;;464708;255;1085;-49
2022/08/29 02:15:31;;;;;;;;;;;21.50;41.80;;;;;;464636;255;1113;-49
2022/08/29 02:17:33;;;;;;;;;;;21.50;41.80;;;;;;464698;255;1339;-49
2022/08/29 02:19:34;;;;;;;;;;;21.50;41.80;;;;;;464684;255;2167;-49
2022/08/29 02:21:35;;;;;;;;;;;21.50;41.80;;;;;;464287;256;1240;-50
2022/08/29 02:23:37;;;;;;;;;;;21.50;41.80;;;;;;464495;255;1306;-49
2022/08/29 02:25:41;;;;;;;;;;;21.50;41.70;;;;;;464182;255;1237;-49
2022/08/29 02:27:43;;;;;;;;;;;21.50;41.70;;;;;;464267;256;1304;-49
2022/08/29 02:29:44;;;;;;;;;;;21.50;41.70;;;;;;464278;256;1327;-49
2022/08/29 02:31:45;;;;;;;;;;;21.50;41.70;;;;;;464250;256;1298;-49
2022/08/29 02:33:46;;;;;;;;;;;21.50;41.80;;;;;;464266;256;1256;-49
2022/08/29 02:35:48;;;;;;;;;;;21.50;41.70;;;;;;464570;255;1174;-50
2022/08/29 02:37:49;;;;;;;;;;;21.50;41.70;;;;;;464192;256;1252;-49
2022/08/29 02:39:50;;;;;;;;;;;21.50;41.70;;;;;;464365;255;2211;-49
2022/08/29 02:41:52;;;;;;;;;;;21.50;41.70;;;;;;464283;256;1265;-50
2022/08/29 02:43:53;;;;;;;;;;;21.50;41.70;;;;;;464652;255;1116;-50
2022/08/29 02:45:55;;;;;;;;;;;21.50;41.70;;;;;;464286;256;1222;-49
2022/08/29 02:47:56;;;;;;;;;;;21.50;41.70;;;;;;464687;255;1097;-49
2022/08/29 02:49:57;;;;;;;;;;;21.50;41.70;;;;;;464501;255;1114;-49
2022/08/29 02:51:59;;;;;;;;;;;21.50;41.70;;;;;;464672;255;1445;-49
2022/08/29 02:54:00;;;;;;;;;;;21.50;41.80;;;;;;464577;255;1115;-49
2022/08/29 02:56:01;;;;;;;;;;;21.50;41.80;;;;;;464670;255;1230;-49
2022/08/29 02:58:03;;;;;;;;;;;21.50;41.90;;;;;;464600;255;1227;-49
2022/08/29 03:00:04;;;;;;;;;;;21.50;41.90;;;;;;464306;255;2412;-49
2022/08/29 03:02:06;;;;;;;;;;;21.50;41.90;;;;;;464027;256;1282;-49
2022/08/29 03:04:07;;;;;;;;;;;21.50;41.90;;;;;;464270;256;2371;-49
2022/08/29 03:06:08;;;;;;;;;;;21.50;41.90;;;;;;464327;255;1361;-49
2022/08/29 03:08:09;;;;;;;;;;;21.50;41.80;;;;;;464571;255;1235;-49
2022/08/29 03:10:11;;;;;;;;;;;21.50;41.80;;;;;;464665;255;1266;-49
2022/08/29 03:12:12;;;;;;;;;;;21.50;41.80;;;;;;464404;255;1297;-50
2022/08/29 03:14:13;;;;;;;;;;;21.50;41.80;;;;;;464606;255;1234;-49
2022/08/29 03:16:15;;;;;;;;;;;21.50;41.80;;;;;;464624;255;1205;-49
2022/08/29 03:18:16;;;;;;;;;;;21.50;41.80;;;;;;464672;255;1075;-49
2022/08/29 03:20:17;;;;;;;;;;;21.50;41.80;;;;;;464524;255;2171;-49
2022/08/29 03:22:19;;;;;;;;;;;21.50;41.80;;;;;;464473;255;1278;-49
2022/08/29 03:24:20;;;;;;;;;;;21.50;41.80;;;;;;464674;255;1383;-49
2022/08/29 03:26:21;;;;;;;;;;;21.50;41.80;;;;;;464685;255;1330;-50
2022/08/29 03:28:22;;;;;;;;;;;21.50;41.80;;;;;;464311;255;1377;-49
2022/08/29 03:30:24;;;;;;;;;;;21.50;41.80;;;;;;464686;255;1314;-50
2022/08/29 03:32:26;;;;;;;;;;;21.50;41.70;;;;;;464393;255;1257;-50
2022/08/29 03:34:27;;;;;;;;;;;21.50;41.70;;;;;;464694;255;1360;-49
2022/08/29 03:36:28;;;;;;;;;;;21.50;41.80;;;;;;464486;255;1232;-49
2022/08/29 03:38:29;;;;;;;;;;;21.50;41.80;;;;;;464691;255;1297;-49
2022/08/29 03:40:31;;;;;;;;;;;21.50;41.80;;;;;;464669;255;2175;-49
2022/08/29 03:42:32;;;;;;;;;;;21.50;41.80;;;;;;464265;255;1249;-49
2022/08/29 03:44:33;;;;;;;;;;;21.50;41.70;;;;;;464286;256;1177;-50
2022/08/29 03:46:36;;;;;;;;;;;21.50;41.70;;;;;;464277;256;1202;-49
2022/08/29 03:48:36;;;;;;;;;;;21.50;41.70;;;;;;464302;255;1430;-49
2022/08/29 03:50:38;;;;;;;;;;;21.50;41.70;;;;;;464441;255;1391;-49
2022/08/29 03:52:39;;;;;;;;;;;21.50;41.70;;;;;;464654;255;1272;-49
2022/08/29 03:54:40;;;;;;;;;;;21.50;41.70;;;;;;464538;255;1277;-50
2022/08/29 03:56:42;;;;;;;;;;;21.50;41.70;;;;;;464303;255;1279;-49
2022/08/29 03:58:43;;;;;;;;;;;21.50;41.70;;;;;;464313;255;1278;-49
2022/08/29 04:00:45;;;;;;;;;;;21.50;41.60;;;;;;464219;256;2230;-49
2022/08/29 04:02:47;;;;;;;;;;;21.50;41.60;;;;;;464078;256;1237;-49
2022/08/29 04:07:07;;;;;;;;;;;21.50;41.70;;;;;;464680;257;1342;-49
2022/08/29 04:09:08;;;;;;;;;;;21.50;41.70;;;;;;464265;256;1097;-49
2022/08/29 04:11:10;;;;;;;;;;;21.50;41.60;;;;;;464282;256;1614;-49
2022/08/29 04:13:11;;;;;;;;;;;21.50;41.60;;;;;;464283;256;1130;-49
2022/08/29 04:15:12;;;;;;;;;;;21.50;41.60;;;;;;464286;255;1075;-49
2022/08/29 04:17:14;;;;;;;;;;;21.50;41.60;;;;;;464486;255;1206;-49
2022/08/29 04:19:15;;;;;;;;;;;21.50;41.60;;;;;;464659;255;1044;-49
2022/08/29 04:21:17;;;;;;;;;;;21.50;41.50;;;;;;464595;255;2167;-49
2022/08/29 04:23:18;;;;;;;;;;;21.50;41.50;;;;;;464684;255;1131;-49
2022/08/29 04:25:19;;;;;;;;;;;21.50;41.60;;;;;;464249;255;1119;-49
2022/08/29 04:27:20;;;;;;;;;;;21.50;41.60;;;;;;464116;255;1167;-49
2022/08/29 04:29:22;;;;;;;;;;;21.50;41.60;;;;;;464366;255;1229;-49
2022/08/29 04:31:23;;;;;;;;;;;21.50;41.60;;;;;;464641;255;1279;-49
2022/08/29 04:33:24;;;;;;;;;;;21.50;41.60;;;;;;464272;256;1235;-49
2022/08/29 04:35:26;;;;;;;;;;;21.50;41.70;;;;;;464213;255;1290;-49
2022/08/29 04:37:27;;;;;;;;;;;21.50;41.80;;;;;;464607;255;1375;-49
2022/08/29 04:39:28;;;;;;;;;;;21.50;41.80;;;;;;464444;255;1297;-50
2022/08/29 04:41:30;;;;;;;;;;;21.50;41.90;;;;;;464600;255;2207;-48
2022/08/29 04:43:31;;;;;;;;;;;21.50;41.80;;;;;;464621;255;1235;-49
2022/08/29 04:45:34;;;;;;;;;;;21.50;41.80;;;;;;464656;255;1200;-50
2022/08/29 04:47:34;;;;;;;;;;;21.50;41.80;;;;;;464494;255;2177;-49
2022/08/29 04:49:35;;;;;;;;;;;21.50;41.80;;;;;;464291;255;1275;-49
2022/08/29 04:51:36;;;;;;;;;;;21.50;41.70;;;;;;464259;256;1216;-49
2022/08/29 04:53:38;;;;;;;;;;;21.50;41.70;;;;;;464646;255;1207;-49
2022/08/29 04:55:39;;;;;;;;;;;21.50;41.80;;;;;;464672;255;1138;-49
2022/08/29 04:57:40;;;;;;;;;;;21.50;41.90;;;;;;464680;255;1149;-49
2022/08/29 04:59:42;;;;;;;;;;;21.50;42.00;;;;;;464638;255;1115;-49
2022/08/29 05:01:43;;;;;;;;;;;21.50;42.20;;;;;;464676;255;2175;-49
2022/08/29 05:03:44;;;;;;;;;;;21.50;42.30;;;;;;464340;255;1216;-49
2022/08/29 05:05:46;;;;;;;;;;;21.50;42.40;;;;;;464635;255;1045;-49
2022/08/29 05:07:47;;;;;;;;;;;21.50;42.50;;;;;;464613;255;1194;-50
2022/08/29 05:09:48;;;;;;;;;;;21.50;42.50;;;;;;464653;255;1203;-49
2022/08/29 05:11:50;;;;;;;;;;;21.50;42.60;;;;;;464210;256;1182;-49
2022/08/29 05:13:52;;;;;;;;;;;21.50;42.70;;;;;;464549;255;1285;-49
2022/08/29 05:15:52;;;;;;;;;;;21.50;42.80;;;;;;464480;255;1380;-49
2022/08/29 05:17:54;;;;;;;;;;;21.50;42.80;;;;;;464208;256;1325;-49
2022/08/29 05:19:55;;;;;;;;;;;21.50;42.80;;;;;;464505;255;1210;-49
2022/08/29 05:21:57;;;;;;;;;;;21.50;42.90;;;;;;464196;256;2218;-50
2022/08/29 05:23:58;;;;;;;;;;;21.50;42.90;;;;;;464452;255;2259;-49
2022/08/29 05:25:59;;;;;;;;;;;21.50;43.00;;;;;;464382;255;1264;-49
2022/08/29 05:28:00;;;;;;;;;;;21.40;43.00;;;;;;464655;255;1271;-49
2022/08/29 05:30:02;;;;;;;;;;;21.40;43.00;;;;;;464244;255;1283;-49
2022/08/29 05:32:03;;;;;;;;;;;21.50;43.00;;;;;;464194;256;1515;-50
2022/08/29 05:34:04;;;;;;;;;;;21.50;43.00;;;;;;464278;255;1205;-49
2022/08/29 05:36:06;;;;;;;;;;;21.50;43.10;;;;;;464213;256;1322;-49
2022/08/29 05:38:07;;;;;;;;;;;21.50;43.20;;;;;;464249;256;1319;-49
2022/08/29 05:40:09;;;;;;;;;;;21.40;43.20;;;;;;464177;255;1400;-49
2022/08/29 05:42:10;;;;;;;;;;;21.40;43.20;;;;;;464296;255;2175;-49
2022/08/29 05:44:12;;;;;;;;;;;21.50;43.30;;;;;;464223;256;1393;-50
2022/08/29 05:46:13;;;;;;;;;;;21.50;43.30;;;;;;464650;255;1232;-49
2022/08/29 05:48:16;;;;;;;;;;;21.50;43.30;;;;;;464491;255;1266;-49
2022/08/29 05:50:16;;;;;;;;;;;21.50;43.30;;;;;;464470;255;1603;-49
2022/08/29 05:52:17;;;;;;;;;;;21.50;43.30;;;;;;464174;256;1256;-50
2022/08/29 05:54:18;;;;;;;;;;;21.40;43.30;;;;;;464246;255;1276;-49
2022/08/29 05:56:20;;;;;;;;;;;21.40;43.40;;;;;;464128;256;1201;-49
2022/08/29 05:58:21;;;;;;;;;;;21.50;43.50;;;;;;464305;255;1235;-50
2022/08/29 06:00:22;;;;;;;;;;;21.50;43.40;;;;;;464143;256;1188;-50
2022/08/29 06:02:24;;;;;;;;;;;21.50;43.50;;;;;;464492;255;2222;-49
2022/08/29 06:04:25;;;;;;;;;;;21.40;43.50;;;;;;464120;255;1224;-49
2022/08/29 06:06:27;;;;;;;;;;;21.40;43.50;;;;;;464174;255;1146;-49
2022/08/29 06:08:28;;;;;;;;;;;21.40;43.50;;;;;;464106;256;1348;-49
2022/08/29 06:10:29;;;;;;;;;;;21.40;43.60;;;;;;464264;255;1287;-50
2022/08/29 06:12:31;;;;;;;;;;;21.40;43.60;;;;;;464038;256;1214;-49
2022/08/29 06:14:32;;;;;;;;;;;21.40;43.70;;;;;;464327;255;1196;-49
2022/08/29 06:16:33;;;;;;;;;;;21.40;43.80;;;;;;464212;255;1215;-49
2022/08/29 06:18:35;;;;;;;;;;;21.40;43.80;;;;;;464185;255;1292;-49
2022/08/29 06:20:36;;;;;;;;;;;21.40;43.80;;;;;;464479;255;1251;-50
2022/08/29 06:22:37;;;;;;;;;;;21.40;43.90;;;;;;464419;255;2187;-49
2022/08/29 06:24:39;;;;;;;;;;;21.40;44.00;;;;;;464448;255;1111;-49
2022/08/29 06:26:40;;;;;;;;;;;21.40;44.00;;;;;;464491;255;1200;-49
2022/08/29 06:28:41;;;;;;;;;;;21.40;44.00;;;;;;464595;255;1122;-49
2022/08/29 06:30:43;;;;;;;;;;;21.40;44.10;;;;;;464517;255;1141;-48
2022/08/29 06:32:44;;;;;;;;;;;21.40;44.20;;;;;;464201;255;1092;-49
2022/08/29 06:34:45;;;;;;;;;;;21.40;44.20;;;;;;464136;256;1229;-50
2022/08/29 06:36:47;;;;;;;;;;;21.40;44.30;;;;;;464386;255;1207;-49
2022/08/29 06:38:48;;;;;;;;;;;21.50;44.40;;;;;;464561;255;1181;-49
2022/08/29 06:40:49;;;;;;;;;;;21.50;44.50;;;;;;464088;255;1199;-49
2022/08/29 06:42:51;;;;;;;;;;;21.40;44.40;;;;;;464012;255;2209;-49
2022/08/29 06:44:52;;;;;;;;;;;21.40;44.50;;;;;;464058;256;1263;-49
2022/08/29 06:46:53;;;;;;;;;;;21.40;44.60;;;;;;464125;256;1247;-49
2022/08/29 06:48:55;;;;;;;;;;;21.50;44.60;;;;;;464307;255;1239;-49
2022/08/29 06:50:56;;;;;;;;;;;21.50;44.60;;;;;;464137;256;1265;-49
2022/08/29 06:52:57;;;;;;;;;;;21.50;44.50;;;;;;463977;255;1243;-49
2022/08/29 06:54:59;;;;;;;;;;;21.50;44.50;;;;;;463840;256;1227;-49
2022/08/29 06:57:00;;;;;;;;;;;21.50;44.40;;;;;;463932;256;1243;-49
2022/08/29 06:59:01;;;;;;;;;;;21.50;44.40;;;;;;464059;255;1216;-49
2022/08/29 07:01:03;;;;;;;;;;;21.50;44.40;;;;;;464080;256;1244;-49
2022/08/29 07:03:04;;;;;;;;;;;21.50;44.40;;;;;;463950;256;2167;-49
2022/08/29 07:05:05;;;;;;;;;;;21.50;44.50;;;;;;464074;255;1173;-49
2022/08/29 07:07:07;;;;;;;;;;;21.50;44.60;;;;;;463934;255;1286;-49
2022/08/29 07:09:09;;;;;;;;;;;21.50;44.50;;;;;;464374;255;1300;-49
2022/08/29 07:11:10;;;;;;;;;;;21.50;44.40;;;;;;464120;255;1207;-49
2022/08/29 07:13:12;;;;;;;;;;;21.50;44.40;;;;;;464157;255;1268;-50
2022/08/29 07:15:13;;;;;;;;;;;21.50;44.40;;;;;;464102;255;1402;-49
2022/08/29 07:17:14;;;;;;;;;;;21.50;44.30;;;;;;464061;255;1227;-49
2022/08/29 07:19:16;;;;;;;;;;;21.50;44.40;;;;;;464267;255;1207;-49
2022/08/29 07:21:17;;;;;;;;;;;21.50;44.30;;;;;;464396;255;1224;-49
2022/08/29 07:23:18;;;;;;;;;;;21.50;44.30;;;;;;464126;255;2190;-49
2022/08/29 07:25:20;;;;;;;;;;;21.50;44.30;;;;;;464101;255;1134;-49
2022/08/29 07:27:21;;;;;;;;;;;21.50;44.30;;;;;;463963;256;1225;-49
2022/08/29 07:29:22;;;;;;;;;;;21.50;44.30;;;;;;464217;255;1070;-49
2022/08/29 07:31:24;;;;;;;;;;;21.50;44.30;;;;;;464391;255;1210;-49
2022/08/29 07:33:25;;;;;;;;;;;21.60;44.40;;;;;;464257;255;1064;-49
2022/08/29 07:35:26;;;;;;;;;;;21.50;44.30;;;;;;464123;255;1084;-49
2022/08/29 07:37:28;;;;;;;;;;;21.50;44.30;;;;;;463974;256;1331;-49
2022/08/29 07:39:29;;;;;;;;;;;21.50;44.30;;;;;;464231;255;1187;-49
2022/08/29 07:41:30;;;;;;;;;;;21.50;44.30;;;;;;464037;256;2213;-49
2022/08/29 07:43:32;;;;;;;;;;;21.50;44.30;;;;;;464205;255;1283;-49
2022/08/29 07:45:33;;;;;;;;;;;21.50;44.30;;;;;;464013;255;2071;-49
2022/08/29 07:47:34;;;;;;;;;;;21.50;44.40;;;;;;464050;256;1159;-50
2022/08/29 07:49:36;;;;;;;;;;;21.50;44.30;;;;;;464150;255;1188;-49
2022/08/29 07:51:37;;;;;;;;;;;21.50;44.30;;;;;;463859;255;1246;-50
2022/08/29 07:53:38;;;;;;;;;;;21.50;44.30;;;;;;463884;255;1169;-49
2022/08/29 07:55:40;;;;;;;;;;;21.50;44.30;;;;;;463871;256;1614;-49
2022/08/29 07:57:41;;;;;;;;;;;21.50;44.40;;;;;;463954;255;1241;-49
2022/08/29 07:59:42;;;;;;;;;;;21.50;44.30;;;;;;464315;255;1099;-49
2022/08/29 08:01:44;;;;;;;;;;;21.50;44.40;;;;;;464101;255;2211;-49
2022/08/29 08:03:45;;;;;;;;;;;21.50;44.30;;;;;;463897;256;1189;-49
2022/08/29 08:05:46;;;;;;;;;;;21.60;44.40;;;;;;463971;256;1116;-49
2022/08/29 08:07:48;;;;;;;;;;;21.50;44.30;;;;;;463999;255;1115;-49
2022/08/29 08:09:49;;;;;;;;;;;21.60;44.40;;;;;;464068;255;1237;-49
2022/08/29 08:11:51;;;;;;;;;;;21.50;44.50;;;;;;463844;255;1207;-49
2022/08/29 08:13:52;;;;;;;;;;;21.60;44.40;;;;;;464281;255;1226;-49
2022/08/29 08:15:54;;;;;;;;;;;21.50;44.40;;;;;;464259;255;1228;-49
2022/08/29 08:17:55;;;;;;;;;;;21.60;44.40;;;;;;464288;255;1229;-49
2022/08/29 08:19:57;;;;;;;;;;;21.60;44.40;;;;;;464020;255;1482;-50
2022/08/29 08:21:58;;;;;;;;;;;21.50;44.40;;;;;;464037;255;2163;-49
2022/08/29 08:23:59;;;;;;;;;;;21.50;44.40;;;;;;464144;255;1301;-49
2022/08/29 08:26:01;;;;;;;;;;;21.60;44.50;;;;;;464242;255;1317;-49
2022/08/29 08:28:02;;;;;;;;;;;21.50;44.50;;;;;;463896;256;1203;-49
2022/08/29 08:30:04;;;;;;;;;;;21.50;44.50;;;;;;464123;255;1197;-49
2022/08/29 08:32:15;;;;;;;;;;;21.50;44.40;;;;;;463676;256;1285;-49
2022/08/29 08:34:16;;;;;;;;;;;21.50;44.50;;;;;;464014;255;1193;-49
2022/08/29 08:36:18;;;;;;;;;;;21.50;44.50;;;;;;464012;255;1210;-50
2022/08/29 08:38:20;;;;;;;;;;;21.60;44.50;;;;;;463103;255;2157;-49
2022/08/29 08:40:20;;;;;;;;;;;21.60;44.50;;;;;;464014;255;2338;-50
2022/08/29 08:42:21;;;;;;;;;;;21.60;44.50;;;;;;464133;255;2202;-49
2022/08/29 08:44:23;;;;;;;;;;;21.60;44.50;;;;;;463973;256;1347;-50
2022/08/29 08:46:25;;;;;;;;;;;21.50;44.50;;;;;;464268;255;1087;-49
2022/08/29 08:48:27;;;;;;;;;;;21.60;44.50;;;;;;464300;255;1128;-50
2022/08/29 08:50:28;;;;;;;;;;;21.60;44.60;;;;;;463874;256;2302;-49
2022/08/29 08:52:30;;;;;;;;;;;21.60;44.50;;;;;;464381;255;1238;-49
2022/08/29 08:54:33;;;;;;;;;;;21.60;44.60;;;;;;464252;255;1292;-49
2022/08/29 08:56:33;;;;;;;;;;;21.50;44.60;;;;;;463119;255;2008;-49
2022/08/29 08:58:34;;;;;;;;;;;21.50;44.60;;;;;;464029;256;1305;-49
2022/08/29 09:00:35;;;;;;;;;;;21.60;44.70;;;;;;463892;256;1224;-49
2022/08/29 09:02:37;;;;;;;;;;;21.50;44.60;;;;;;463974;255;2217;-49
2022/08/29 09:04:38;;;;;;;;;;;21.60;44.70;;;;;;463066;255;1198;-49
2022/08/29 09:06:39;;;;;;;;;;;21.50;44.60;;;;;;463866;256;1252;-49
2022/08/29 09:08:41;;;;;;;;;;;21.60;44.60;;;;;;463191;255;1099;-49
2022/08/29 09:10:42;;;;;;;;;;;21.60;44.70;;;;;;464028;255;2121;-49
2022/08/29 09:12:43;;;;;;;;;;;21.50;44.80;;;;;;464172;255;1232;-49
2022/08/29 09:14:45;;;;;;;;;;;21.50;44.80;;;;;;464109;255;1202;-49
2022/08/29 09:16:46;;;;;;;;;;;21.60;44.90;;;;;;464340;255;1187;-49
2022/08/29 09:18:48;;;;;;;;;;;21.50;45.00;;;;;;464078;255;1453;-49
2022/08/29 09:20:49;;;;;;;;;;;21.50;45.10;;;;;;464032;255;1143;-49
2022/08/29 09:22:50;;;;;;;;;;;21.60;45.10;;;;;;464179;255;2209;-49
2022/08/29 09:24:52;;;;;;;;;;;21.50;45.00;;;;;;464003;256;1233;-49
2022/08/29 09:26:55;;;;;;;;;;;21.50;45.00;;;;;;464357;255;1238;-49
2022/08/29 09:28:54;;;;;;;;;;;21.50;45.00;;;;;;464220;255;2128;-49
2022/08/29 09:30:56;;;;;;;;;;;21.60;45.10;;;;;;463980;255;1176;-49
2022/08/29 09:32:57;;;;;;;;;;;21.60;45.10;;;;;;464540;255;1144;-49
2022/08/29 09:34:59;;;;;;;;;;;21.60;45.10;;;;;;463154;255;1134;-49
2022/08/29 09:37:00;;;;;;;;;;;21.60;45.10;;;;;;463486;255;1184;-49
2022/08/29 09:39:01;;;;;;;;;;;21.60;45.10;;;;;;463093;256;1059;-49
2022/08/29 09:41:03;;;;;;;;;;;21.60;45.10;;;;;;464201;255;1100;-49
2022/08/29 09:43:06;;;;;;;;;;;21.60;45.10;;;;;;464216;255;2206;-49
2022/08/29 09:45:05;;;;;;;;;;;21.60;45.10;;;;;;463959;256;2062;-49
2022/08/29 09:47:07;;;;;;;;;;;21.60;45.10;;;;;;464048;255;1400;-49
2022/08/29 09:49:11;;;;;;;;;;;21.60;45.10;;;;;;464017;256;1207;-49
2022/08/29 09:51:09;;;;;;;;;;;21.50;45.00;;;;;;463737;256;2253;-49
2022/08/29 09:53:11;;;;;;;;;;;21.60;45.30;;;;;;464098;256;1328;-49
2022/08/29 09:55:12;;;;;;;;;;;21.50;45.10;;;;;;464141;255;1467;-49
2022/08/29 09:57:13;;;;;;;;;;;21.60;45.20;;;;;;464221;255;1279;-49
2022/08/29 09:59:15;;;;;;;;;;;21.60;45.20;;;;;;464065;255;1302;-49
2022/08/29 10:01:16;;;;;;;;;;;21.60;45.20;;;;;;463964;255;1629;-49
2022/08/29 10:03:17;;;;;;;;;;;21.50;45.10;;;;;;464036;256;2167;-50
2022/08/29 10:05:19;;;;;;;;;;;21.60;45.10;;;;;;464150;255;1213;-49
2022/08/29 10:07:20;;;;;;;;;;;21.60;45.20;;;;;;463760;256;1544;-49
2022/08/29 10:09:21;;;;;;;;;;;21.60;45.20;;;;;;464444;255;1191;-49
2022/08/29 10:11:23;;;;;;;;;;;21.60;45.20;;;;;;463919;255;1300;-49
2022/08/29 10:13:24;;;;;;;;;;;21.50;45.20;;;;;;464062;255;1367;-49
2022/08/29 10:15:26;;;;;;;;;;;21.60;45.30;;;;;;463983;256;1241;-49
2022/08/29 10:19:50;;;;;;;;;;;21.60;45.30;;;;;;460776;256;1432;-50
2022/08/29 10:21:52;;;;;;;;;;;21.50;45.20;;;;;;464037;256;1181;-49
2022/08/29 10:23:53;;;;;;;;;;;21.60;45.20;;;;;;464520;255;2190;-49
2022/08/29 10:25:54;;;;;;;;;;;21.60;45.20;;;;;;464231;255;1199;-49
2022/08/29 10:27:56;;;;;;;;;;;21.60;45.30;;;;;;464323;255;1267;-49
2022/08/29 10:29:57;;;;;;;;;;;21.50;45.20;;;;;;464019;256;1291;-49
2022/08/29 10:31:58;;;;;;;;;;;21.50;45.30;;;;;;464166;255;1201;-49
2022/08/29 10:34:00;;;;;;;;;;;21.60;45.30;;;;;;464265;255;1214;-50
2022/08/29 10:36:01;;;;;;;;;;;21.60;45.30;;;;;;464472;255;1260;-49
2022/08/29 10:38:02;;;;;;;;;;;21.60;45.30;;;;;;464145;256;1207;-49
2022/08/29 10:40:04;;;;;;;;;;;21.60;45.30;;;;;;464113;256;1245;-49
2022/08/29 10:42:05;;;;;;;;;;;21.60;45.30;;;;;;464017;255;1294;-49
2022/08/29 10:44:06;;;;;;;;;;;21.60;45.30;;;;;;463995;256;2219;-50
2022/08/29 10:46:08;;;;;;;;;;;21.60;45.40;;;;;;464162;255;1247;-49
2022/08/29 10:48:10;;;;;;;;;;;21.60;45.40;;;;;;464082;256;1285;-49
2022/08/29 10:50:11;;;;;;;;;;;21.60;45.40;;;;;;464057;256;1292;-50
2022/08/29 10:52:12;;;;;;;;;;;21.60;45.40;;;;;;464151;255;1279;-49
2022/08/29 10:54:15;;;;;;;;;;;21.60;45.40;;;;;;464477;255;1201;-49
2022/08/29 10:56:15;;;;;;;;;;;21.60;45.40;;;;;;464526;255;2455;-49
2022/08/29 10:58:16;;;;;;;;;;;21.60;45.50;;;;;;464022;256;1532;-50
2022/08/29 11:00:18;;;;;;;;;;;21.60;45.40;;;;;;464187;255;1253;-49
2022/08/29 11:02:19;;;;;;;;;;;21.60;45.40;;;;;;463858;255;1199;-49
2022/08/29 11:04:21;;;;;;;;;;;21.60;45.60;;;;;;463956;255;2170;-49
2022/08/29 11:06:22;;;;;;;;;;;21.50;45.70;;;;;;464025;256;1255;-49
2022/08/29 11:08:23;;;;;;;;;;;21.50;45.70;;;;;;463958;255;1166;-49
2022/08/29 11:10:25;;;;;;;;;;;21.50;45.80;;;;;;463983;256;1218;-49
2022/08/29 11:12:26;;;;;;;;;;;21.60;45.70;;;;;;464272;255;1278;-49
2022/08/29 11:14:27;;;;;;;;;;;21.50;45.60;;;;;;464127;255;1306;-49
2022/08/29 11:16:28;;;;;;;;;;;21.60;45.70;;;;;;464274;255;1219;-49
2022/08/29 11:18:30;;;;;;;;;;;21.60;45.60;;;;;;463994;255;1259;-49
2022/08/29 11:20:31;;;;;;;;;;;21.60;45.60;;;;;;464031;255;1268;-49
2022/08/29 11:22:32;;;;;;;;;;;21.60;45.60;;;;;;464271;255;1203;-50
2022/08/29 11:24:34;;;;;;;;;;;21.60;45.60;;;;;;463977;256;2198;-49
2022/08/29 11:26:35;;;;;;;;;;;21.60;45.60;;;;;;464047;255;1095;-49
2022/08/29 11:28:36;;;;;;;;;;;21.60;45.60;;;;;;464320;255;1180;-50
2022/08/29 11:30:38;;;;;;;;;;;21.60;45.60;;;;;;464225;255;1117;-49
2022/08/29 11:32:39;;;;;;;;;;;21.60;45.60;;;;;;464056;255;1185;-49
2022/08/29 11:34:40;;;;;;;;;;;21.60;45.60;;;;;;464018;255;1180;-49
2022/08/29 11:36:42;;;;;;;;;;;21.50;45.50;;;;;;464305;255;1218;-49
2022/08/29 11:38:43;;;;;;;;;;;21.60;45.60;;;;;;464217;255;1098;-49
2022/08/29 11:40:44;;;;;;;;;;;21.60;45.60;;;;;;463977;256;1308;-49
2022/08/29 11:42:47;;;;;;;;;;;21.50;45.50;;;;;;464160;255;1570;-49
2022/08/29 11:44:47;;;;;;;;;;;21.60;45.60;;;;;;464255;255;2206;-48
2022/08/29 11:46:49;;;;;;;;;;;21.60;45.50;;;;;;463981;255;1307;-49
2022/08/29 11:48:53;;;;;;;;;;;21.60;45.60;;;;;;464039;255;1268;-49
2022/08/29 11:50:51;;;;;;;;;;;21.60;45.60;;;;;;463944;256;1952;-49
2022/08/29 11:52:53;;;;;;;;;;;21.60;45.60;;;;;;463989;255;1356;-49
2022/08/29 11:54:55;;;;;;;;;;;21.60;45.60;;;;;;464083;255;1220;-49
2022/08/29 11:56:55;;;;;;;;;;;21.60;45.60;;;;;;464018;255;1975;-49
2022/08/29 11:58:57;;;;;;;;;;;21.60;45.50;;;;;;464218;255;1283;-49
2022/08/29 12:00:58;;;;;;;;;;;21.60;45.60;;;;;;464165;255;1409;-49
2022/08/29 12:02:59;;;;;;;;;;;21.60;45.50;;;;;;464397;255;1153;-49
2022/08/29 12:05:01;;;;;;;;;;;21.60;45.50;;;;;;464025;255;2116;-49